sensor_id;sensor_type;location;lat;lon;timestamp;pressure;altitude;pressure_sealevel;temperature;humidity
51239;BME280;38154;47.548;18.828;2023-02-16T00:00:59;100050.19;;;-1.78;100.00
51239;BME280;38154;47.548;18.828;2023-02-16T00:03:24;100054.09;;;-1.83;100.00
51239;BME280;38154;47.548;18.828;2023-02-16T00:05:50;100049.78;;;-1.84;100.00
51239;BME280;38154;47.548;18.828;2023-02-16T00:08:16;100048.09;;;-1.83;100.00
51239;BME280;38154;47.548;18.828;2023-02-16T00:10:44;100045.28;;;-1.75;100.00
51239;BME280;38154;47.548;18.828;2023-02-16T00:13:33;100050.25;;;-1.53;100.00
51239;BME280;38154;47.548;18.828;2023-02-16T00:16:22;100051.38;;;-1.49;100.00
51239;BME280;38154;47.548;18.828;2023-02-16T00:18:49;100047.00;;;-1.38;100.00
51239;BME280;38154;47.548;18.828;2023-02-16T00:21:15;100050.25;;;-1.53;100.00
51239;BME280;38154;47.548;18.828;2023-02-16T00:23:42;100045.75;;;-1.69;100.00
51239;BME280;38154;47.548;18.828;2023-02-16T00:26:24;100040.66;;;-1.80;100.00
51239;BME280;38154;47.548;18.828;2023-02-16T00:28:55;100043.06;;;-1.70;100.00
51239;BME280;38154;47.548;18.828;2023-02-16T00:31:24;100037.31;;;-1.67;100.00
51239;BME280;38154;47.548;18.828;2023-02-16T00:33:52;100035.12;;;-1.50;100.00
51239;BME280;38154;47.548;18.828;2023-02-16T00:36:18;100036.03;;;-1.49;100.00
51239;BME280;38154;47.548;18.828;2023-02-16T00:38:44;100034.63;;;-1.69;100.00
51239;BME280;38154;47.548;18.828;2023-02-16T00:41:21;100037.28;;;-1.79;100.00
51239;BME280;38154;47.548;18.828;2023-02-16T00:44:19;100036.22;;;-1.95;100.00
51239;BME280;38154;47.548;18.828;2023-02-16T00:46:46;100033.69;;;-2.18;100.00
51239;BME280;38154;47.548;18.828;2023-02-16T00:49:14;100029.56;;;-2.28;100.00
51239;BME280;38154;47.548;18.828;2023-02-16T00:51:40;100028.03;;;-2.26;100.00
51239;BME280;38154;47.548;18.828;2023-02-16T00:54:06;100028.13;;;-2.25;100.00
51239;BME280;38154;47.548;18.828;2023-02-16T00:56:32;100023.56;;;-2.17;100.00
51239;BME280;38154;47.548;18.828;2023-02-16T00:58:59;100016.25;;;-2.12;100.00
51239;BME280;38154;47.548;18.828;2023-02-16T01:01:29;100016.37;;;-2.11;100.00
51239;BME280;38154;47.548;18.828;2023-02-16T01:04:00;100014.69;;;-2.10;100.00
51239;BME280;38154;47.548;18.828;2023-02-16T01:06:27;100017.34;;;-2.09;100.00
51239;BME280;38154;47.548;18.828;2023-02-16T01:09:17;100016.91;;;-2.27;100.00
51239;BME280;38154;47.548;18.828;2023-02-16T01:12:04;100013.59;;;-2.26;100.00
51239;BME280;38154;47.548;18.828;2023-02-16T01:14:31;100007.50;;;-2.39;100.00
51239;BME280;38154;47.548;18.828;2023-02-16T01:16:58;100006.69;;;-2.27;100.00
51239;BME280;38154;47.548;18.828;2023-02-16T01:19:24;100003.59;;;-2.34;100.00
51239;BME280;38154;47.548;18.828;2023-02-16T01:21:50;100007.28;;;-2.43;100.00
51239;BME280;38154;47.548;18.828;2023-02-16T01:24:16;100005.72;;;-2.52;100.00
51239;BME280;38154;47.548;18.828;2023-02-16T01:26:46;100004.72;;;-2.54;100.00
51239;BME280;38154;47.548;18.828;2023-02-16T01:29:16;100007.81;;;-2.58;100.00
51239;BME280;38154;47.548;18.828;2023-02-16T01:31:42;100000.94;;;-2.59;100.00
51239;BME280;38154;47.548;18.828;2023-02-16T01:34:09;100000.16;;;-2.58;100.00
51239;BME280;38154;47.548;18.828;2023-02-16T01:36:41;99999.03;;;-2.62;100.00
51239;BME280;38154;47.548;18.828;2023-02-16T01:39:12;99997.81;;;-2.55;100.00
51239;BME280;38154;47.548;18.828;2023-02-16T01:46:51;100006.47;;;-2.65;100.00
51239;BME280;38154;47.548;18.828;2023-02-16T01:49:19;100003.78;;;-2.67;100.00
51239;BME280;38154;47.548;18.828;2023-02-16T02:02:23;99977.06;;;-2.60;100.00
51239;BME280;38154;47.548;18.828;2023-02-16T02:04:53;99985.41;;;-2.63;100.00
51239;BME280;38154;47.548;18.828;2023-02-16T02:07:54;99978.06;;;-2.58;100.00
51239;BME280;38154;47.548;18.828;2023-02-16T02:10:49;99970.84;;;-2.64;100.00
51239;BME280;38154;47.548;18.828;2023-02-16T02:16:03;99968.97;;;-2.66;100.00
51239;BME280;38154;47.548;18.828;2023-02-16T02:18:30;99963.06;;;-2.65;100.00
51239;BME280;38154;47.548;18.828;2023-02-16T02:24:55;99965.19;;;-2.71;100.00
51239;BME280;38154;47.548;18.828;2023-02-16T02:27:26;99963.19;;;-2.75;100.00
51239;BME280;38154;47.548;18.828;2023-02-16T02:30:10;99964.28;;;-2.72;100.00
51239;BME280;38154;47.548;18.828;2023-02-16T02:33:10;99965.06;;;-2.73;100.00
51239;BME280;38154;47.548;18.828;2023-02-16T02:38:35;99966.72;;;-2.73;100.00
51239;BME280;38154;47.548;18.828;2023-02-16T02:41:17;99965.06;;;-2.73;100.00
51239;BME280;38154;47.548;18.828;2023-02-16T02:43:53;99965.50;;;-2.78;100.00
51239;BME280;38154;47.548;18.828;2023-02-16T02:46:31;99956.63;;;-2.84;100.00
51239;BME280;38154;47.548;18.828;2023-02-16T02:48:58;99963.63;;;-2.81;100.00
51239;BME280;38154;47.548;18.828;2023-02-16T02:51:24;99955.84;;;-2.83;100.00
51239;BME280;38154;47.548;18.828;2023-02-16T02:54:32;99957.28;;;-2.86;100.00
51239;BME280;38154;47.548;18.828;2023-02-16T03:00:09;99956.28;;;-2.88;100.00
51239;BME280;38154;47.548;18.828;2023-02-16T03:02:58;99952.19;;;-2.86;100.00
51239;BME280;38154;47.548;18.828;2023-02-16T03:05:30;99949.75;;;-2.85;100.00
51239;BME280;38154;47.548;18.828;2023-02-16T03:08:02;99947.22;;;-2.73;100.00
51239;BME280;38154;47.548;18.828;2023-02-16T03:10:45;99946.09;;;-2.65;100.00
51239;BME280;38154;47.548;18.828;2023-02-16T03:13:40;99942.63;;;-2.65;100.00
51239;BME280;38154;47.548;18.828;2023-02-16T03:16:12;99946.75;;;-2.55;100.00
51239;BME280;38154;47.548;18.828;2023-02-16T03:18:41;99942.84;;;-2.50;100.00
51239;BME280;38154;47.548;18.828;2023-02-16T03:21:27;99941.09;;;-2.51;100.00
51239;BME280;38154;47.548;18.828;2023-02-16T03:24:18;99947.75;;;-2.53;100.00
51239;BME280;38154;47.548;18.828;2023-02-16T03:27:06;99941.88;;;-2.52;100.00
51239;BME280;38154;47.548;18.828;2023-02-16T03:29:52;99943.22;;;-2.57;100.00
51239;BME280;38154;47.548;18.828;2023-02-16T03:32:19;99939.66;;;-2.59;100.00
51239;BME280;38154;47.548;18.828;2023-02-16T03:34:46;99934.66;;;-2.58;100.00
51239;BME280;38154;47.548;18.828;2023-02-16T03:37:12;99937.00;;;-2.61;100.00
51239;BME280;38154;47.548;18.828;2023-02-16T03:39:38;99936.06;;;-2.50;100.00
51239;BME280;38154;47.548;18.828;2023-02-16T03:42:23;99942.84;;;-2.50;100.00
51239;BME280;38154;47.548;18.828;2023-02-16T03:44:50;99932.75;;;-2.61;100.00
51239;BME280;38154;47.548;18.828;2023-02-16T03:47:16;99936.31;;;-2.58;100.00
51239;BME280;38154;47.548;18.828;2023-02-16T03:49:42;99935.44;;;-2.59;100.00
51239;BME280;38154;47.548;18.828;2023-02-16T03:52:08;99933.34;;;-2.65;100.00
51239;BME280;38154;47.548;18.828;2023-02-16T03:54:34;99931.31;;;-2.69;100.00
51239;BME280;38154;47.548;18.828;2023-02-16T03:57:00;99927.31;;;-2.65;100.00
51239;BME280;38154;47.548;18.828;2023-02-16T03:59:26;99928.22;;;-2.65;100.00
51239;BME280;38154;47.548;18.828;2023-02-16T04:01:52;99936.09;;;-2.73;100.00
51239;BME280;38154;47.548;18.828;2023-02-16T04:04:18;99940.66;;;-2.81;100.00
51239;BME280;38154;47.548;18.828;2023-02-16T04:06:43;99934.34;;;-2.74;100.00
51239;BME280;38154;47.548;18.828;2023-02-16T04:09:09;99934.22;;;-2.76;100.00
51239;BME280;38154;47.548;18.828;2023-02-16T04:11:35;99934.63;;;-2.82;100.00
51239;BME280;38154;47.548;18.828;2023-02-16T04:14:20;99930.97;;;-2.85;100.00
51239;BME280;38154;47.548;18.828;2023-02-16T04:16:46;99930.44;;;-2.81;100.00
51239;BME280;38154;47.548;18.828;2023-02-16T04:19:12;99934.63;;;-2.82;100.00
51239;BME280;38154;47.548;18.828;2023-02-16T04:21:38;99934.63;;;-2.82;100.00
51239;BME280;38154;47.548;18.828;2023-02-16T04:24:04;99934.44;;;-2.73;100.00
51239;BME280;38154;47.548;18.828;2023-02-16T04:26:31;99934.09;;;-2.77;100.00
51239;BME280;38154;47.548;18.828;2023-02-16T04:28:57;99934.88;;;-2.78;100.00
51239;BME280;38154;47.548;18.828;2023-02-16T04:31:23;99935.09;;;-2.87;100.00
51239;BME280;38154;47.548;18.828;2023-02-16T04:33:49;99931.53;;;-2.89;100.00
51239;BME280;38154;47.548;18.828;2023-02-16T04:36:15;99931.87;;;-2.85;100.00
51239;BME280;38154;47.548;18.828;2023-02-16T04:38:41;99924.00;;;-2.76;100.00
51239;BME280;38154;47.548;18.828;2023-02-16T04:41:07;99932.00;;;-2.71;100.00
51239;BME280;38154;47.548;18.828;2023-02-16T04:43:33;99930.09;;;-2.74;100.00
51239;BME280;38154;47.548;18.828;2023-02-16T04:45:59;99927.09;;;-2.80;100.00
51239;BME280;38154;47.548;18.828;2023-02-16T04:48:25;99928.44;;;-2.85;100.00
51239;BME280;38154;47.548;18.828;2023-02-16T04:50:51;99930.44;;;-2.81;100.00
51239;BME280;38154;47.548;18.828;2023-02-16T04:53:17;99923.66;;;-2.81;100.00
51239;BME280;38154;47.548;18.828;2023-02-16T04:55:47;99932.44;;;-2.77;100.00
51239;BME280;38154;47.548;18.828;2023-02-16T04:58:14;99925.69;;;-2.76;100.00
51239;BME280;38154;47.548;18.828;2023-02-16T05:00:40;99926.56;;;-2.76;100.00
51239;BME280;38154;47.548;18.828;2023-02-16T05:03:06;99923.44;;;-2.72;100.00
51239;BME280;38154;47.548;18.828;2023-02-16T05:05:32;99924.47;;;-2.70;100.00
51239;BME280;38154;47.548;18.828;2023-02-16T05:08:00;99927.00;;;-2.70;100.00
51239;BME280;38154;47.548;18.828;2023-02-16T05:10:27;99926.66;;;-2.63;100.00
51239;BME280;38154;47.548;18.828;2023-02-16T05:12:53;99933.66;;;-2.60;100.00
51239;BME280;38154;47.548;18.828;2023-02-16T05:15:37;99932.44;;;-2.65;100.00
51239;BME280;38154;47.548;18.828;2023-02-16T05:18:04;99938.44;;;-2.65;100.00
51239;BME280;38154;47.548;18.828;2023-02-16T05:20:30;99930.44;;;-2.69;100.00
51239;BME280;38154;47.548;18.828;2023-02-16T05:23:34;99926.34;;;-2.67;100.00
51239;BME280;38154;47.548;18.828;2023-02-16T05:26:00;99925.66;;;-2.88;100.00
51239;BME280;38154;47.548;18.828;2023-02-16T05:28:26;99924.31;;;-2.95;100.00
51239;BME280;38154;47.548;18.828;2023-02-16T05:30:52;99921.09;;;-2.92;100.00
51239;BME280;38154;47.548;18.828;2023-02-16T05:33:18;99925.56;;;-3.02;100.00
51239;BME280;38154;47.548;18.828;2023-02-16T05:35:44;99923.78;;;-3.03;100.00
51239;BME280;38154;47.548;18.828;2023-02-16T05:38:10;99923.78;;;-3.03;100.00
51239;BME280;38154;47.548;18.828;2023-02-16T05:40:36;99913.34;;;-3.06;100.00
51239;BME280;38154;47.548;18.828;2023-02-16T05:43:01;99921.34;;;-3.01;100.00
51239;BME280;38154;47.548;18.828;2023-02-16T05:45:27;99922.66;;;-2.94;100.00
51239;BME280;38154;47.548;18.828;2023-02-16T05:47:53;99920.00;;;-2.96;100.00
51239;BME280;38154;47.548;18.828;2023-02-16T05:50:19;99919.78;;;-2.99;100.00
51239;BME280;38154;47.548;18.828;2023-02-16T05:52:45;99912.22;;;-2.97;100.00
51239;BME280;38154;47.548;18.828;2023-02-16T05:55:11;99910.91;;;-2.92;100.00
51239;BME280;38154;47.548;18.828;2023-02-16T05:57:37;99904.47;;;-2.87;100.00
51239;BME280;38154;47.548;18.828;2023-02-16T06:00:03;99908.81;;;-2.86;100.00
51239;BME280;38154;47.548;18.828;2023-02-16T06:02:29;99905.81;;;-2.81;100.00
51239;BME280;38154;47.548;18.828;2023-02-16T06:04:55;99911.91;;;-2.78;100.00
51239;BME280;38154;47.548;18.828;2023-02-16T06:07:21;99913.00;;;-2.75;100.00
51239;BME280;38154;47.548;18.828;2023-02-16T06:09:47;99913.09;;;-2.62;100.00
51239;BME280;38154;47.548;18.828;2023-02-16T06:12:12;99907.91;;;-2.63;100.00
51239;BME280;38154;47.548;18.828;2023-02-16T06:14:38;99915.34;;;-2.66;100.00
51239;BME280;38154;47.548;18.828;2023-02-16T06:17:04;99915.66;;;-2.62;100.00
51239;BME280;38154;47.548;18.828;2023-02-16T06:19:30;99912.22;;;-2.50;100.00
51239;BME280;38154;47.548;18.828;2023-02-16T06:21:57;99906.53;;;-2.34;100.00
51239;BME280;38154;47.548;18.828;2023-02-16T06:24:23;99905.06;;;-2.19;100.00
51239;BME280;38154;47.548;18.828;2023-02-16T06:26:48;99907.38;;;-2.10;100.00
51239;BME280;38154;47.548;18.828;2023-02-16T06:29:14;99904.66;;;-2.00;100.00
51239;BME280;38154;47.548;18.828;2023-02-16T06:31:40;99902.75;;;-1.91;100.00
51239;BME280;38154;47.548;18.828;2023-02-16T06:34:06;99907.59;;;-1.82;100.00
51239;BME280;38154;47.548;18.828;2023-02-16T06:36:32;99903.53;;;-1.66;100.00
51239;BME280;38154;47.548;18.828;2023-02-16T06:38:58;99906.72;;;-1.57;100.00
51239;BME280;38154;47.548;18.828;2023-02-16T06:41:24;99901.75;;;-1.42;100.00
51239;BME280;38154;47.548;18.828;2023-02-16T06:43:58;99905.78;;;-1.33;100.00
51239;BME280;38154;47.548;18.828;2023-02-16T06:46:24;99899.75;;;-1.08;100.00
51239;BME280;38154;47.548;18.828;2023-02-16T06:48:50;99898.56;;;-1.00;100.00
51239;BME280;38154;47.548;18.828;2023-02-16T06:51:16;99898.38;;;-0.89;100.00
51239;BME280;38154;47.548;18.828;2023-02-16T06:53:42;99893.16;;;-0.51;100.00
51239;BME280;38154;47.548;18.828;2023-02-16T06:56:08;99895.03;;;1.09;100.00
51239;BME280;38154;47.548;18.828;2023-02-16T06:58:34;99893.28;;;2.86;100.00
51239;BME280;38154;47.548;18.828;2023-02-16T07:01:00;99896.09;;;4.38;100.00
51239;BME280;38154;47.548;18.828;2023-02-16T07:03:26;99904.50;;;5.57;100.00
51239;BME280;38154;47.548;18.828;2023-02-16T07:05:52;99904.78;;;6.57;92.54
51239;BME280;38154;47.548;18.828;2023-02-16T07:08:18;99910.09;;;7.37;85.00
51239;BME280;38154;47.548;18.828;2023-02-16T07:10:45;99906.19;;;8.07;79.78
51239;BME280;38154;47.548;18.828;2023-02-16T07:13:12;99915.78;;;8.69;75.87
51239;BME280;38154;47.548;18.828;2023-02-16T07:15:38;99921.84;;;9.36;71.37
51239;BME280;38154;47.548;18.828;2023-02-16T07:18:04;99922.84;;;9.78;67.94
51239;BME280;38154;47.548;18.828;2023-02-16T07:20:30;99924.47;;;9.73;67.92
51239;BME280;38154;47.548;18.828;2023-02-16T07:22:56;99921.91;;;10.14;66.18
51239;BME280;38154;47.548;18.828;2023-02-16T07:25:22;99928.47;;;9.96;65.92
51239;BME280;38154;47.548;18.828;2023-02-16T07:27:50;99922.84;;;10.17;64.26
51239;BME280;38154;47.548;18.828;2023-02-16T07:30:16;99930.19;;;10.35;63.90
51239;BME280;38154;47.548;18.828;2023-02-16T07:32:42;99928.91;;;10.57;63.79
51239;BME280;38154;47.548;18.828;2023-02-16T07:35:08;99927.22;;;11.07;62.60
51239;BME280;38154;47.548;18.828;2023-02-16T07:37:35;99919.25;;;11.51;59.46
51239;BME280;38154;47.548;18.828;2023-02-16T07:40:00;99924.66;;;11.62;58.85
51239;BME280;38154;47.548;18.828;2023-02-16T07:42:30;99927.25;;;12.17;57.84
51239;BME280;38154;47.548;18.828;2023-02-16T07:44:56;99923.59;;;12.05;57.74
51239;BME280;38154;47.548;18.828;2023-02-16T07:47:22;99927.41;;;12.31;57.80
51239;BME280;38154;47.548;18.828;2023-02-16T07:49:48;99928.81;;;12.76;55.84
51239;BME280;38154;47.548;18.828;2023-02-16T07:52:14;99928.91;;;12.85;54.83
51239;BME280;38154;47.548;18.828;2023-02-16T07:54:40;99925.31;;;12.74;56.02
51239;BME280;38154;47.548;18.828;2023-02-16T07:57:06;99931.91;;;13.25;53.83
51239;BME280;38154;47.548;18.828;2023-02-16T07:59:32;99932.91;;;13.35;54.37
51239;BME280;38154;47.548;18.828;2023-02-16T08:01:58;99928.75;;;13.62;53.77
51239;BME280;38154;47.548;18.828;2023-02-16T08:04:24;99926.13;;;13.60;52.22
51239;BME280;38154;47.548;18.828;2023-02-16T08:06:50;99928.94;;;13.85;52.16
51239;BME280;38154;47.548;18.828;2023-02-16T08:09:16;99931.72;;;14.16;51.11
51239;BME280;38154;47.548;18.828;2023-02-16T08:11:42;99934.41;;;14.33;51.10
51239;BME280;38154;47.548;18.828;2023-02-16T08:14:08;99928.25;;;14.17;50.90
51239;BME280;38154;47.548;18.828;2023-02-16T08:16:34;99929.19;;;14.36;49.95
51239;BME280;38154;47.548;18.828;2023-02-16T08:19:00;99933.56;;;14.34;51.21
51239;BME280;38154;47.548;18.828;2023-02-16T08:21:30;99938.16;;;14.86;50.02
51239;BME280;38154;47.548;18.828;2023-02-16T08:24:00;99928.19;;;14.04;50.94
51239;BME280;38154;47.548;18.828;2023-02-16T08:26:37;99937.06;;;14.28;51.77
51239;BME280;38154;47.548;18.828;2023-02-16T08:29:05;99939.87;;;14.67;50.83
51239;BME280;38154;47.548;18.828;2023-02-16T08:31:33;99938.09;;;14.64;50.64
51239;BME280;38154;47.548;18.828;2023-02-16T08:34:00;99941.59;;;14.69;50.78
51239;BME280;38154;47.548;18.828;2023-02-16T08:36:30;99939.94;;;15.00;49.56
51239;BME280;38154;47.548;18.828;2023-02-16T08:39:00;99940.84;;;15.19;49.60
51239;BME280;38154;47.548;18.828;2023-02-16T08:41:33;99945.25;;;15.94;47.14
51239;BME280;38154;47.548;18.828;2023-02-16T08:43:59;99940.72;;;16.44;45.29
51239;BME280;38154;47.548;18.828;2023-02-16T08:46:29;99936.50;;;15.97;46.51
51239;BME280;38154;47.548;18.828;2023-02-16T08:48:56;99934.69;;;16.08;45.40
51239;BME280;38154;47.548;18.828;2023-02-16T08:51:25;99938.25;;;15.64;46.75
51239;BME280;38154;47.548;18.828;2023-02-16T08:53:53;99937.34;;;15.51;47.69
51239;BME280;38154;47.548;18.828;2023-02-16T08:56:19;99934.72;;;15.28;47.69
51239;BME280;38154;47.548;18.828;2023-02-16T08:58:45;99945.25;;;15.91;45.40
51239;BME280;38154;47.548;18.828;2023-02-16T09:01:11;99945.19;;;14.97;47.27
51239;BME280;38154;47.548;18.828;2023-02-16T09:03:39;99939.97;;;15.73;46.51
51239;BME280;38154;47.548;18.828;2023-02-16T09:06:08;99938.81;;;16.77;43.64
51239;BME280;38154;47.548;18.828;2023-02-16T09:08:35;99939.03;;;16.29;44.91
51239;BME280;38154;47.548;18.828;2023-02-16T09:11:07;99943.50;;;15.47;48.76
51239;BME280;38154;47.548;18.828;2023-02-16T09:13:35;99940.84;;;16.04;44.72
51239;BME280;38154;47.548;18.828;2023-02-16T09:16:06;99945.25;;;15.99;44.95
51239;BME280;38154;47.548;18.828;2023-02-16T09:18:32;99938.19;;;16.12;45.02
51239;BME280;38154;47.548;18.828;2023-02-16T09:21:06;99949.66;;;15.89;45.21
51239;BME280;38154;47.548;18.828;2023-02-16T09:23:36;99948.75;;;15.32;47.77
51239;BME280;38154;47.548;18.828;2023-02-16T09:26:03;99941.78;;;15.77;47.48
51239;BME280;38154;47.548;18.828;2023-02-16T09:28:33;99939.16;;;15.75;47.05
51239;BME280;38154;47.548;18.828;2023-02-16T09:31:00;99943.50;;;15.49;47.06
51239;BME280;38154;47.548;18.828;2023-02-16T09:33:25;99951.38;;;15.98;45.71
51239;BME280;38154;47.548;18.828;2023-02-16T09:35:52;99953.16;;;15.62;46.21
51239;BME280;38154;47.548;18.828;2023-02-16T09:38:18;99946.84;;;14.63;48.49
51239;BME280;38154;47.548;18.828;2023-02-16T09:40:45;99946.91;;;14.84;47.93
51239;BME280;38154;47.548;18.828;2023-02-16T09:43:18;99959.25;;;15.35;46.38
51239;BME280;38154;47.548;18.828;2023-02-16T09:45:51;99958.38;;;16.07;44.32
51239;BME280;38154;47.548;18.828;2023-02-16T09:48:34;99950.50;;;16.02;44.85
51239;BME280;38154;47.548;18.828;2023-02-16T09:51:03;99950.34;;;16.53;43.67
51239;BME280;38154;47.548;18.828;2023-02-16T09:53:38;99947.87;;;15.98;45.06
51239;BME280;38154;47.548;18.828;2023-02-16T09:58:52;99953.97;;;16.12;45.42
51239;BME280;38154;47.548;18.828;2023-02-16T10:04:13;99940.87;;;15.61;46.69
51239;BME280;38154;47.548;18.828;2023-02-16T10:09:23;99938.25;;;15.59;47.96
51239;BME280;38154;47.548;18.828;2023-02-16T10:12:08;99933.88;;;15.85;47.51
51239;BME280;38154;47.548;18.828;2023-02-16T10:14:50;99940.00;;;16.04;45.92
51239;BME280;38154;47.548;18.828;2023-02-16T10:17:31;99943.50;;;15.47;48.15
51239;BME280;38154;47.548;18.828;2023-02-16T10:25:36;99936.38;;;16.34;43.96
51239;BME280;38154;47.548;18.828;2023-02-16T10:28:16;99931.22;;;15.86;45.90
51239;BME280;38154;47.548;18.828;2023-02-16T10:31:22;99939.94;;;14.88;48.25
51239;BME280;38154;47.548;18.828;2023-02-16T10:39:22;99928.66;;;11.93;57.23
51239;BME280;38154;47.548;18.828;2023-02-16T10:42:14;99921.38;;;11.20;59.05
51239;BME280;38154;47.548;18.828;2023-02-16T10:47:42;99916.44;;;10.88;63.34
51239;BME280;38154;47.548;18.828;2023-02-16T10:50:32;99906.62;;;11.24;62.20
51239;BME280;38154;47.548;18.828;2023-02-16T10:53:07;99908.81;;;11.52;62.76
51239;BME280;38154;47.548;18.828;2023-02-16T10:55:36;99908.25;;;12.32;58.64
51239;BME280;38154;47.548;18.828;2023-02-16T10:58:02;99902.59;;;12.71;57.41
51239;BME280;38154;47.548;18.828;2023-02-16T11:00:43;99911.50;;;12.87;56.29
51239;BME280;38154;47.548;18.828;2023-02-16T11:03:11;99907.00;;;13.72;55.96
51239;BME280;38154;47.548;18.828;2023-02-16T11:05:38;99901.66;;;13.58;54.92
51239;BME280;38154;47.548;18.828;2023-02-16T11:08:07;99905.66;;;14.48;51.57
51239;BME280;38154;47.548;18.828;2023-02-16T11:10:43;99907.41;;;14.52;51.49
51239;BME280;38154;47.548;18.828;2023-02-16T11:13:24;99902.22;;;14.64;51.72
51239;BME280;38154;47.548;18.828;2023-02-16T11:15:57;99902.13;;;14.43;51.20
51239;BME280;38154;47.548;18.828;2023-02-16T11:18:46;99894.19;;;14.29;52.15
51239;BME280;38154;47.548;18.828;2023-02-16T11:21:14;99889.84;;;14.36;50.49
51239;BME280;38154;47.548;18.828;2023-02-16T11:23:42;99887.22;;;14.36;51.71
51239;BME280;38154;47.548;18.828;2023-02-16T11:31:37;99883.81;;;13.14;53.82
51239;BME280;38154;47.548;18.828;2023-02-16T11:36:48;99870.53;;;14.17;52.21
51239;BME280;38154;47.548;18.828;2023-02-16T11:39:26;99867.75;;;13.81;52.19
51239;BME280;38154;47.548;18.828;2023-02-16T11:41:58;99872.28;;;14.13;52.01
51239;BME280;38154;47.548;18.828;2023-02-16T11:46:52;99862.50;;;13.89;52.97
51239;BME280;38154;47.548;18.828;2023-02-16T11:49:32;99864.91;;;13.52;54.07
51239;BME280;38154;47.548;18.828;2023-02-16T11:51:59;99853.38;;;13.30;55.80
51239;BME280;38154;47.548;18.828;2023-02-16T11:54:25;99858.88;;;13.64;54.54
51239;BME280;38154;47.548;18.828;2023-02-16T11:57:06;99860.84;;;14.03;53.33
51239;BME280;38154;47.548;18.828;2023-02-16T11:59:38;99847.69;;;13.91;53.03
51239;BME280;38154;47.548;18.828;2023-02-16T12:02:35;99848.06;;;13.22;55.64
51239;BME280;38154;47.548;18.828;2023-02-16T12:08:12;99844.31;;;11.45;61.76
51239;BME280;38154;47.548;18.828;2023-02-16T12:24:57;99810.53;;;9.64;70.15
51239;BME280;38154;47.548;18.828;2023-02-16T12:27:38;99812.31;;;9.66;71.91
51239;BME280;38154;47.548;18.828;2023-02-16T12:32:44;99805.72;;;9.43;73.78
51239;BME280;38154;47.548;18.828;2023-02-16T12:46:00;99791.03;;;9.07;78.19
51239;BME280;38154;47.548;18.828;2023-02-16T12:48:40;99790.09;;;9.05;80.18
51239;BME280;38154;47.548;18.828;2023-02-16T12:51:21;99788.53;;;9.12;79.70
51239;BME280;38154;47.548;18.828;2023-02-16T12:56:49;99783.44;;;9.16;80.32
51239;BME280;38154;47.548;18.828;2023-02-16T12:59:31;99769.28;;;9.03;79.83
51239;BME280;38154;47.548;18.828;2023-02-16T13:02:00;99760.22;;;8.87;82.78
51239;BME280;38154;47.548;18.828;2023-02-16T13:04:44;99754.78;;;8.77;82.75
51239;BME280;38154;47.548;18.828;2023-02-16T13:07:30;99760.06;;;8.81;83.77
51239;BME280;38154;47.548;18.828;2023-02-16T13:10:06;99753.81;;;8.75;85.27
51239;BME280;38154;47.548;18.828;2023-02-16T13:12:39;99751.19;;;8.71;84.21
51239;BME280;38154;47.548;18.828;2023-02-16T13:15:15;99738.44;;;8.82;83.87
51239;BME280;38154;47.548;18.828;2023-02-16T13:17:49;99744.13;;;8.67;85.34
51239;BME280;38154;47.548;18.828;2023-02-16T13:20:19;99738.22;;;8.75;84.26
51239;BME280;38154;47.548;18.828;2023-02-16T13:42:45;99719.31;;;8.80;80.82
51239;BME280;38154;47.548;18.828;2023-02-16T13:45:19;99707.12;;;8.79;80.44
51239;BME280;38154;47.548;18.828;2023-02-16T13:47:45;99718.41;;;8.80;80.24
51239;BME280;38154;47.548;18.828;2023-02-16T13:52:47;99714.28;;;8.88;79.61
51239;BME280;38154;47.548;18.828;2023-02-16T13:55:30;99708.19;;;8.87;80.01
51239;BME280;38154;47.548;18.828;2023-02-16T14:00:37;99715.81;;;8.78;79.49
51239;BME280;38154;47.548;18.828;2023-02-16T14:05:43;99705.09;;;8.66;80.25
51239;BME280;38154;47.548;18.828;2023-02-16T14:08:16;99709.41;;;8.65;80.48
51239;BME280;38154;47.548;18.828;2023-02-16T14:15:54;99709.72;;;8.43;81.05
51239;BME280;38154;47.548;18.828;2023-02-16T14:18:31;99715.59;;;8.35;81.00
51239;BME280;38154;47.548;18.828;2023-02-16T14:21:14;99707.69;;;8.32;82.79
51239;BME280;38154;47.548;18.828;2023-02-16T14:23:41;99707.88;;;8.39;82.77
51239;BME280;38154;47.548;18.828;2023-02-16T14:26:07;99708.59;;;8.33;83.51
51239;BME280;38154;47.548;18.828;2023-02-16T14:31:12;99714.25;;;8.16;84.40
51239;BME280;38154;47.548;18.828;2023-02-16T14:33:47;99715.88;;;8.13;84.85
51239;BME280;38154;47.548;18.828;2023-02-16T14:36:20;99716.88;;;8.18;84.18
51239;BME280;38154;47.548;18.828;2023-02-16T14:38:47;99706.28;;;8.10;85.12
51239;BME280;38154;47.548;18.828;2023-02-16T14:43:48;99698.22;;;7.99;85.59
51239;BME280;38154;47.548;18.828;2023-02-16T14:46:40;99701.69;;;8.00;86.50
51239;BME280;38154;47.548;18.828;2023-02-16T14:55:26;99700.91;;;8.04;88.30
51239;BME280;38154;47.548;18.828;2023-02-16T14:58:14;99704.97;;;7.93;89.34
51239;BME280;38154;47.548;18.828;2023-02-16T15:00:48;99709.19;;;7.89;90.50
51239;BME280;38154;47.548;18.828;2023-02-16T15:05:49;99700.12;;;7.75;88.30
51239;BME280;38154;47.548;18.828;2023-02-16T15:08:17;99696.59;;;7.71;89.28
51239;BME280;38154;47.548;18.828;2023-02-16T15:10:49;99694.81;;;7.70;89.97
51239;BME280;38154;47.548;18.828;2023-02-16T15:13:21;99696.16;;;7.56;89.23
51239;BME280;38154;47.548;18.828;2023-02-16T15:15:51;99694.06;;;7.42;90.47
51239;BME280;38154;47.548;18.828;2023-02-16T15:18:21;99687.06;;;7.40;90.29
51239;BME280;38154;47.548;18.828;2023-02-16T15:20:49;99694.44;;;7.26;92.04
51239;BME280;38154;47.548;18.828;2023-02-16T15:23:19;99695.00;;;7.16;92.99
51239;BME280;38154;47.548;18.828;2023-02-16T15:26:02;99695.59;;;7.07;94.11